createdAt,value
2023-04-11T00:00:54.019Z,14245.4619
2023-04-11T00:01:55.684Z,14249.3076
2023-04-11T00:02:57.621Z,14251.3076
2023-04-11T00:03:59.146Z,14252.0000
2023-04-11T00:05:00.739Z,14256.3076
2023-04-11T00:06:02.279Z,14256.9229
2023-04-11T00:07:03.902Z,14260.3848
2023-04-11T00:08:05.642Z,14263.4619
2023-04-11T00:09:07.216Z,14270.4619
2023-04-11T00:10:08.871Z,14269.2305
2023-04-11T00:11:10.649Z,14271.1543
2023-04-11T00:12:12.180Z,14274.3076
2023-04-11T00:13:13.935Z,14275.7695
2023-04-11T00:14:16.097Z,14275.6924
2023-04-11T00:15:17.141Z,14280.0771
2023-04-11T00:16:18.851Z,14271.9229
2023-04-11T00:17:20.471Z,14195.0000
2023-04-11T00:18:22.165Z,14196.5381
2023-04-11T00:19:23.770Z,14204.2305
2023-04-11T00:20:25.449Z,14208.2305
2023-04-11T00:21:27.126Z,14211.8457
2023-04-11T00:22:28.744Z,14212.9229
2023-04-11T00:23:31.292Z,14222.0000
2023-04-11T00:24:32.073Z,14225.7695
2023-04-11T00:25:33.796Z,14236.9229
2023-04-11T00:26:35.370Z,14244.7695
2023-04-11T00:27:37.019Z,14243.6924
2023-04-11T00:28:38.766Z,14245.4619
2023-04-11T00:29:40.417Z,14248.7695
2023-04-11T00:30:42.031Z,14256.3848
2023-04-11T00:31:43.742Z,14257.8457
2023-04-11T00:32:45.366Z,14261.6924
2023-04-11T00:33:47.058Z,14262.3076
2023-04-11T00:34:48.714Z,14268.4619
2023-04-11T00:35:50.364Z,14271.0000
2023-04-11T00:36:52.034Z,14274.6924
2023-04-11T00:37:53.576Z,14274.6924
2023-04-11T00:38:56.001Z,14279.2305
2023-04-11T00:39:57.013Z,14279.7695
2023-04-11T00:40:58.625Z,14279.4619
2023-04-11T00:42:00.321Z,14276.4619
2023-04-11T00:43:02.045Z,14278.9229
2023-04-11T00:44:03.638Z,14289.8457
2023-04-11T00:45:05.264Z,14288.6152
2023-04-11T00:46:07.030Z,14275.6152
2023-04-11T00:47:08.675Z,14209.2305
2023-04-11T00:48:10.227Z,14213.7695
2023-04-11T00:49:11.904Z,14213.0771
2023-04-11T00:50:13.558Z,14214.6924
2023-04-11T00:51:15.291Z,14217.0771
2023-04-11T00:52:16.857Z,14222.0000
2023-04-11T00:53:18.548Z,14225.0771
2023-04-11T00:54:20.213Z,14238.4619
2023-04-11T00:55:21.800Z,14245.9229
2023-04-11T00:56:23.432Z,14250.3848
2023-04-11T00:57:25.155Z,14252.7695
2023-04-11T00:58:26.790Z,14254.1543
2023-04-11T00:59:28.395Z,14255.0771
2023-04-11T01:00:30.176Z,14258.3076
2023-04-11T01:01:32.801Z,14258.2305
2023-04-11T01:02:33.446Z,14263.5381
2023-04-11T01:03:35.160Z,14265.7695
2023-04-11T01:04:36.770Z,14263.5381
2023-04-11T01:05:38.401Z,14268.9229
2023-04-11T01:06:40.032Z,14269.5381
2023-04-11T01:07:41.678Z,14272.3076
2023-04-11T01:08:43.304Z,14272.6152
2023-04-11T01:09:45.006Z,14276.4619
2023-04-11T01:10:46.634Z,14281.2305
2023-04-11T01:11:48.266Z,14285.0771
2023-04-11T01:12:49.906Z,14285.4619
2023-04-11T01:13:51.592Z,14281.0000
2023-04-11T01:14:53.267Z,14280.3848
2023-04-11T01:15:54.927Z,14282.9229
2023-04-11T01:16:56.699Z,14283.8457
2023-04-11T01:17:58.258Z,14291.3848
2023-04-11T01:18:59.901Z,14294.4619
2023-04-11T01:20:01.766Z,14294.3076
2023-04-11T01:21:03.177Z,14292.9229
2023-04-11T01:22:04.755Z,14292.3076
2023-04-11T01:23:05.306Z,14289.8330
2023-04-11T01:24:08.139Z,14289.0713
2023-04-11T01:25:10.247Z,14292.3848
2023-04-11T01:26:11.518Z,14256.1543
2023-04-11T01:27:13.170Z,14210.0000
2023-04-11T01:28:14.891Z,14214.0771
2023-04-11T01:29:16.409Z,14218.3848
2023-04-11T01:30:18.237Z,14216.3848
2023-04-11T01:31:19.728Z,14222.4619
2023-04-11T01:32:21.436Z,14229.1543
2023-04-11T01:33:23.063Z,14233.0771
2023-04-11T01:34:24.755Z,14240.0000
2023-04-11T01:35:27.212Z,14244.7695
2023-04-11T01:36:28.023Z,14249.6924
2023-04-11T01:37:29.590Z,14250.1543
2023-04-11T01:38:31.290Z,14248.6924
2023-04-11T01:39:33.011Z,14251.6924
2023-04-11T01:40:34.649Z,14251.7695
2023-04-11T01:41:36.251Z,14252.6924
2023-04-11T01:42:38.001Z,14256.5381
2023-04-11T01:43:39.529Z,14257.4619
2023-04-11T01:44:41.200Z,14260.6924
2023-04-11T01:45:42.881Z,14265.0000
2023-04-11T01:46:44.561Z,14268.0771
2023-04-11T01:47:47.046Z,14268.9229
2023-04-11T01:48:47.945Z,14268.0771
2023-04-11T01:49:49.485Z,14268.8457
2023-04-11T01:50:51.152Z,14274.0771
2023-04-11T01:51:52.795Z,14275.1543
2023-04-11T01:52:54.524Z,14272.2305
2023-04-11T01:53:56.123Z,14272.2305
2023-04-11T01:54:58.291Z,14273.4619
2023-04-11T01:55:59.416Z,14276.5381
2023-04-11T01:57:01.016Z,14279.4619
2023-04-11T01:58:02.737Z,14279.8457
2023-04-11T01:59:04.393Z,14282.4619
2023-04-11T02:00:06.706Z,14288.2305
2023-04-11T02:01:07.859Z,14286.6924
2023-04-11T02:02:09.471Z,14285.3848
2023-04-11T02:03:11.121Z,14286.1543
2023-04-11T02:04:12.825Z,14271.6152
2023-04-11T02:05:14.344Z,14217.4619
2023-04-11T02:06:16.598Z,14217.5381
2023-04-11T02:07:17.658Z,14215.6152
2023-04-11T02:08:19.218Z,14219.8457
2023-04-11T02:09:20.892Z,14220.6152
2023-04-11T02:10:22.533Z,14231.6924
2023-04-11T02:11:24.322Z,14236.7695
2023-04-11T02:12:25.870Z,14236.8457
2023-04-11T02:13:27.416Z,14240.6924
2023-04-11T02:14:29.133Z,14240.9229
2023-04-11T02:15:30.934Z,14246.7695
2023-04-11T02:16:32.536Z,14246.3076
2023-04-11T02:17:34.226Z,14242.6924
2023-04-11T02:18:35.728Z,14249.9229
2023-04-11T02:19:37.457Z,14247.0000
2023-04-11T02:20:39.140Z,14250.6924
2023-04-11T02:21:40.790Z,14256.3848
2023-04-11T02:22:42.458Z,14258.2305
2023-04-11T02:23:44.147Z,14259.9229
2023-04-11T02:24:45.741Z,14264.6152
2023-04-11T02:25:48.224Z,14266.0771
2023-04-11T02:26:49.148Z,14267.3076
2023-04-11T02:27:50.803Z,14267.0000
2023-04-11T02:28:52.462Z,14266.4619
2023-04-11T02:29:54.031Z,14267.6152
2023-04-11T02:30:55.732Z,14269.4619
2023-04-11T02:31:57.374Z,14275.4619
2023-04-11T02:32:59.028Z,14278.1543
2023-04-11T02:34:00.635Z,14278.3848
2023-04-11T02:35:02.320Z,14277.2305
2023-04-11T02:36:04.110Z,14275.3848
2023-04-11T02:37:05.747Z,14248.6152
2023-04-11T02:38:07.189Z,14204.6924
2023-04-11T02:39:08.912Z,14205.9229
2023-04-11T02:40:10.495Z,14203.6924
2023-04-11T02:41:12.190Z,14207.5381
2023-04-11T02:42:14.583Z,14209.2305
2023-04-11T02:43:15.601Z,14223.5381
2023-04-11T02:44:17.207Z,14225.0771
2023-04-11T02:45:18.881Z,14236.3076
2023-04-11T02:46:20.443Z,14240.8457
2023-04-11T02:47:22.362Z,14238.8457
2023-04-11T02:48:23.861Z,14240.2305
2023-04-11T02:49:25.428Z,14236.8457
2023-04-11T02:50:27.124Z,14236.9229
2023-04-11T02:51:28.816Z,14240.6924
2023-04-11T02:52:30.444Z,14241.3076
2023-04-11T02:53:32.075Z,14245.1543
2023-04-11T02:54:33.806Z,14239.6924
2023-04-11T02:55:35.422Z,14238.4619
2023-04-11T02:56:37.019Z,14240.6152
2023-04-11T02:57:38.648Z,14242.6152
2023-04-11T02:58:40.324Z,14242.0771
2023-04-11T02:59:41.942Z,14238.6924
2023-04-11T03:00:43.644Z,14232.5381
2023-04-11T03:01:45.351Z,14237.6152
2023-04-11T03:02:46.933Z,14234.3848
2023-04-11T03:03:48.595Z,14232.6924
2023-04-11T03:04:50.207Z,14231.8457
2023-04-11T03:05:51.785Z,14229.6924
2023-04-11T03:06:53.438Z,14232.4619
2023-04-11T03:07:55.237Z,14228.8457
2023-04-11T03:08:57.489Z,14228.9229
2023-04-11T03:09:58.526Z,14227.3076
2023-04-11T03:11:00.082Z,14226.6924
2023-04-11T03:12:01.726Z,14227.3848
2023-04-11T03:13:04.312Z,14228.0771
2023-04-11T03:14:05.070Z,14224.2305
2023-04-11T03:15:06.738Z,14221.3848
2023-04-11T03:16:08.435Z,14224.2305
2023-04-11T03:17:09.986Z,14226.0000
2023-04-11T03:18:11.698Z,14226.3848
2023-04-11T03:19:13.423Z,14222.3076
2023-04-11T03:20:14.993Z,14223.3848
2023-04-11T03:21:16.620Z,14225.6152
2023-04-11T03:22:18.256Z,14223.4619
2023-04-11T03:23:19.963Z,14222.0771
2023-04-11T03:24:21.591Z,14220.6152
2023-04-11T03:25:23.335Z,14220.6924
2023-04-11T03:26:24.942Z,14217.6924
2023-04-11T03:27:26.547Z,14218.6152
2023-04-11T03:28:29.236Z,14217.8457
2023-04-11T03:29:29.905Z,14216.9229
2023-04-11T03:30:31.512Z,14215.5381
2023-04-11T03:31:33.195Z,14212.3076
2023-04-11T03:32:34.848Z,14212.0000
2023-04-11T03:33:37.387Z,14216.3076
2023-04-11T03:34:38.198Z,14213.2305
2023-04-11T03:35:39.887Z,14211.5381
2023-04-11T03:36:41.491Z,14211.6152
2023-04-11T03:37:43.076Z,14209.4619
2023-04-11T03:38:44.699Z,14209.9229
2023-04-11T03:39:46.477Z,14206.7695
2023-04-11T03:40:48.070Z,14205.6924
2023-04-11T03:41:49.738Z,14208.5381
2023-04-11T03:42:51.368Z,14208.0000
2023-04-11T03:43:53.013Z,14206.2305
2023-04-11T03:44:54.740Z,14204.9229
2023-04-11T03:45:56.380Z,14204.6924
2023-04-11T03:46:58.067Z,14206.3848
2023-04-11T03:47:59.660Z,14201.3076
2023-04-11T03:49:01.270Z,14200.4619
2023-04-11T03:50:03.291Z,14201.3076
2023-04-11T03:51:04.602Z,14203.0771
2023-04-11T03:52:06.216Z,14200.2305
2023-04-11T03:53:07.854Z,14198.4619
2023-04-11T03:54:09.514Z,14199.9229
2023-04-11T03:55:11.186Z,14195.2305
2023-04-11T03:56:12.822Z,14195.2305
2023-04-11T03:57:14.587Z,14196.4619
2023-04-11T03:58:16.168Z,14195.0771
2023-04-11T03:59:17.816Z,14191.3076
2023-04-11T04:00:20.139Z,14190.8457
2023-04-11T04:01:21.141Z,14191.1543
2023-04-11T04:02:22.957Z,14188.6924
2023-04-11T04:03:24.680Z,14185.6152
2023-04-11T04:04:26.262Z,14188.2305
2023-04-11T04:05:27.752Z,14184.3848
2023-04-11T04:06:29.370Z,14183.8457
2023-04-11T04:07:31.077Z,14178.0000
2023-04-11T04:08:32.690Z,14181.6152
2023-04-11T04:09:34.431Z,14182.6924
2023-04-11T04:10:35.973Z,14181.1543
2023-04-11T04:11:37.665Z,14179.6924
2023-04-11T04:12:39.362Z,14182.0000
2023-04-11T04:13:40.979Z,14177.3076
2023-04-11T04:14:42.662Z,14179.3848
2023-04-11T04:15:44.300Z,14175.5381
2023-04-11T04:16:46.060Z,14174.7695
2023-04-11T04:17:47.618Z,14174.4619
2023-04-11T04:18:49.249Z,14170.6924
2023-04-11T04:19:50.903Z,14175.0000
2023-04-11T04:20:52.533Z,14171.8457
2023-04-11T04:21:54.210Z,14165.3076
2023-04-11T04:22:55.830Z,14165.3076
2023-04-11T04:23:57.622Z,14161.5381
2023-04-11T04:24:59.445Z,14161.1543
2023-04-11T04:26:00.831Z,14159.3848
2023-04-11T04:27:02.528Z,14159.8457
2023-04-11T04:28:04.081Z,14160.3076
2023-04-11T04:29:05.756Z,14160.0771
2023-04-11T04:30:07.462Z,14159.0771
2023-04-11T04:31:09.078Z,14155.0000
2023-04-11T04:32:10.883Z,14154.0000
2023-04-11T04:33:12.535Z,14153.8457
2023-04-11T04:34:14.007Z,14152.7695
2023-04-11T04:35:15.672Z,14151.3848
2023-04-11T04:36:17.225Z,14152.8457
2023-04-11T04:37:18.940Z,14153.3076
2023-04-11T04:38:20.556Z,14149.0771
2023-04-11T04:39:22.208Z,14148.0000
2023-04-11T04:40:23.913Z,14149.8457
2023-04-11T04:41:25.517Z,14148.3076
2023-04-11T04:42:27.172Z,14148.6924
2023-04-11T04:43:28.925Z,14148.6152
2023-04-11T04:44:30.529Z,14146.3848
2023-04-11T04:45:32.374Z,14145.1543
2023-04-11T04:46:33.828Z,14144.6924
2023-04-11T04:47:35.529Z,14144.7695
2023-04-11T04:48:37.124Z,14141.2305
2023-04-11T04:49:38.762Z,14141.7695
2023-04-11T04:50:40.474Z,14143.6152
2023-04-11T04:51:42.072Z,14143.0000
2023-04-11T04:52:43.666Z,14141.3076
2023-04-11T04:53:45.430Z,14142.1543
2023-04-11T04:54:47.078Z,14143.3076
2023-04-11T04:55:48.736Z,14140.9229
2023-04-11T04:56:50.329Z,14143.8457
2023-04-11T04:57:52.051Z,14139.9229
2023-04-11T04:58:53.575Z,14137.1543
2023-04-11T04:59:55.289Z,14138.1543
2023-04-11T05:00:56.952Z,14138.5381
2023-04-11T05:01:58.639Z,14137.1543
2023-04-11T05:03:00.398Z,14136.3076
2023-04-11T05:04:02.489Z,14134.4619
2023-04-11T05:05:03.623Z,14136.2305
2023-04-11T05:06:05.257Z,14136.3076
2023-04-11T05:07:06.873Z,14131.9229
2023-04-11T05:08:08.506Z,14133.6924
2023-04-11T05:09:10.153Z,14135.8457
2023-04-11T05:10:11.832Z,14132.0000
2023-04-11T05:11:13.798Z,14130.0771
2023-04-11T05:12:15.064Z,14128.7695
2023-04-11T05:13:16.704Z,14124.3076
2023-04-11T05:14:18.388Z,14127.2305
2023-04-11T05:15:20.416Z,14126.0771
2023-04-11T05:16:21.817Z,14117.4619
2023-04-11T05:17:25.182Z,14115.6152
2023-04-11T05:18:25.046Z,14107.2305
2023-04-11T05:19:26.681Z,14104.7695
2023-04-11T05:20:29.250Z,14103.0771
2023-04-11T05:21:30.835Z,14102.8457
2023-04-11T05:22:31.625Z,14095.5381
2023-04-11T05:23:33.372Z,14094.2305
2023-04-11T05:24:34.987Z,14088.1543
2023-04-11T05:25:36.754Z,14084.6924
2023-04-11T05:26:38.966Z,14082.0000
2023-04-11T05:27:39.994Z,14089.0000
2023-04-11T05:28:41.782Z,14083.4619
2023-04-11T05:29:43.345Z,14081.5381
2023-04-11T05:30:44.968Z,14076.8457
2023-04-11T05:31:46.924Z,14072.0000
2023-04-11T05:32:48.345Z,14071.8457
2023-04-11T05:33:51.017Z,14074.7695
2023-04-11T05:34:51.635Z,14068.3848
2023-04-11T05:35:53.324Z,14071.0000
2023-04-11T05:36:54.875Z,14067.2305
2023-04-11T05:37:56.742Z,14061.0771
2023-04-11T05:38:58.260Z,14059.7695
2023-04-11T05:39:59.820Z,14065.9229
2023-04-11T05:41:01.453Z,14062.6924
2023-04-11T05:42:03.151Z,14060.2305
2023-04-11T05:43:04.999Z,14055.3076
2023-04-11T05:44:06.390Z,14054.8457
2023-04-11T05:45:08.089Z,14049.9229
2023-04-11T05:46:09.740Z,14060.3848
2023-04-11T05:47:11.595Z,14053.6152
2023-04-11T05:48:14.227Z,14055.7695
2023-04-11T05:49:14.788Z,14054.9170
2023-04-11T05:50:16.483Z,14051.1543
2023-04-11T05:51:18.194Z,14049.5381
2023-04-11T05:52:19.930Z,14055.6924
2023-04-11T05:53:21.376Z,14049.8457
2023-04-11T05:54:23.044Z,14047.9229
2023-04-11T05:55:24.719Z,14046.7695
2023-04-11T05:56:26.352Z,14040.6152
2023-04-11T05:57:28.337Z,14044.4619
2023-04-11T05:58:29.673Z,14047.8457
2023-04-11T05:59:31.364Z,14046.3076
2023-04-11T06:00:32.958Z,14046.0000
2023-04-11T06:01:34.520Z,14041.3076
2023-04-11T06:02:36.295Z,14038.6924
2023-04-11T06:03:37.912Z,14045.7695
2023-04-11T06:04:40.117Z,14045.0771
2023-04-11T06:05:41.133Z,14047.0771
2023-04-11T06:06:42.752Z,14045.1543
2023-04-11T06:07:44.443Z,14039.3848
2023-04-11T06:08:46.159Z,14038.2305
2023-04-11T06:09:47.834Z,14048.1543
2023-04-11T06:10:49.502Z,14047.5381
2023-04-11T06:11:51.124Z,14043.0771
2023-04-11T06:12:52.780Z,14039.7695
2023-04-11T06:13:54.545Z,14034.9229
2023-04-11T06:14:56.019Z,14034.4619
2023-04-11T06:15:57.873Z,14038.1543
2023-04-11T06:16:59.391Z,14034.6924
2023-04-11T06:18:01.196Z,14032.9229
2023-04-11T06:19:02.649Z,14034.0771
2023-04-11T06:20:05.919Z,14029.4619
2023-04-11T06:21:06.125Z,14027.0000
2023-04-11T06:22:07.758Z,14031.0000
2023-04-11T06:23:09.968Z,14029.2305
2023-04-11T06:24:10.915Z,14033.3848
2023-04-11T06:25:12.602Z,14025.5381
2023-04-11T06:26:14.234Z,14022.9229
2023-04-11T06:27:16.844Z,14024.7695
2023-04-11T06:28:17.642Z,14025.4619
2023-04-11T06:29:19.945Z,14026.6152
2023-04-11T06:30:21.051Z,14025.1543
2023-04-11T06:31:23.569Z,14020.6152
2023-04-11T06:32:24.633Z,14022.3076
2023-04-11T06:33:25.755Z,14023.3848
2023-04-11T06:34:27.677Z,14025.0771
2023-04-11T06:35:29.166Z,14022.5381
2023-04-11T06:36:30.787Z,14020.9229
2023-04-11T06:37:32.512Z,14020.6152
2023-04-11T06:38:34.586Z,14020.2305
2023-04-11T06:39:35.825Z,14018.7695
2023-04-11T06:40:37.452Z,14020.9229
2023-04-11T06:41:39.026Z,14019.3076
2023-04-11T06:42:41.050Z,14017.6924
2023-04-11T06:43:42.539Z,14016.0000
2023-04-11T06:44:44.373Z,14020.7695
2023-04-11T06:45:45.652Z,14023.2305
2023-04-11T06:46:47.488Z,14019.4619
2023-04-11T06:47:49.075Z,14018.0771
2023-04-11T06:48:50.634Z,14014.9229
2023-04-11T06:49:52.240Z,14018.9229
2023-04-11T06:50:55.046Z,14021.6152
2023-04-11T06:51:55.548Z,14023.4619
2023-04-11T06:52:57.299Z,14018.0000
2023-04-11T06:53:58.888Z,14016.6152
2023-04-11T06:55:00.564Z,14017.9229
2023-04-11T06:56:02.164Z,14018.4619
2023-04-11T06:57:03.881Z,14021.6152
2023-04-11T06:58:05.355Z,14019.3076
2023-04-11T06:59:07.301Z,14016.1543
2023-04-11T07:00:08.727Z,14014.9229
2023-04-11T07:01:10.373Z,14016.6152
2023-04-11T07:02:12.112Z,14018.6152
2023-04-11T07:03:13.797Z,14016.3076
2023-04-11T07:04:15.516Z,14013.1543
2023-04-11T07:05:16.981Z,14016.9229
2023-04-11T07:06:18.696Z,14018.7695
2023-04-11T07:07:20.318Z,14012.9229
2023-04-11T07:08:21.894Z,14014.6152
2023-04-11T07:09:23.592Z,14015.0771
2023-04-11T07:10:25.258Z,14024.4619
2023-04-11T07:11:26.950Z,14019.4619
2023-04-11T07:12:28.458Z,14010.1543
2023-04-11T07:13:30.904Z,14013.1543
2023-04-11T07:14:31.904Z,14015.7695
2023-04-11T07:15:33.463Z,14016.3076
2023-04-11T07:16:35.170Z,14016.6152
2023-04-11T07:17:36.967Z,14016.1543
2023-04-11T07:18:38.400Z,14015.3076
2023-04-11T07:19:40.103Z,14010.9229
2023-04-11T07:20:41.725Z,14017.6924
2023-04-11T07:21:43.405Z,14020.5381
2023-04-11T07:22:45.032Z,14016.1543
2023-04-11T07:23:46.661Z,14016.8457
2023-04-11T07:24:48.340Z,14013.2305
2023-04-11T07:25:49.953Z,14012.7695
2023-04-11T07:26:51.798Z,14017.0000
2023-04-11T07:27:53.334Z,14019.9229
2023-04-11T07:28:54.972Z,14017.6152
2023-04-11T07:29:56.830Z,14016.1543
2023-04-11T07:30:58.244Z,14010.0771
2023-04-11T07:31:59.863Z,14012.6924
2023-04-11T07:33:01.505Z,14015.0000
2023-04-11T07:34:03.135Z,14022.9229
2023-04-11T07:35:05.050Z,14017.8457
2023-04-11T07:36:06.499Z,14016.2305
2023-04-11T07:37:08.081Z,14015.3848
2023-04-11T07:38:09.790Z,14013.6152
2023-04-11T07:39:11.460Z,14019.1543
2023-04-11T07:40:13.522Z,14020.0771
2023-04-11T07:41:14.694Z,14021.3848
2023-04-11T07:42:16.311Z,14026.7695
2023-04-11T07:43:18.116Z,14023.8457
2023-04-11T07:44:19.825Z,14020.4619
2023-04-11T07:45:21.365Z,14021.6924
2023-04-11T07:46:22.949Z,14019.9229
2023-04-11T07:47:24.603Z,14021.6152
2023-04-11T07:48:26.344Z,14022.3848
2023-04-11T07:49:27.948Z,14024.9229
2023-04-11T07:50:29.768Z,14018.6924
2023-04-11T07:51:31.154Z,14016.4619
2023-04-11T07:52:32.911Z,14019.0771
2023-04-11T07:53:34.504Z,14023.9229
2023-04-11T07:54:36.101Z,14023.6924
2023-04-11T07:55:37.837Z,14023.3848
2023-04-11T07:56:40.405Z,14019.0000
2023-04-11T07:57:41.087Z,14018.9229
2023-04-11T07:58:42.772Z,14021.7695
2023-04-11T07:59:44.572Z,14024.1543
2023-04-11T08:00:45.991Z,14025.8457
2023-04-11T08:01:47.775Z,14029.1543
2023-04-11T08:02:50.356Z,14021.0771
2023-04-11T08:03:51.076Z,14021.1543
2023-04-11T08:04:52.754Z,14021.4619
2023-04-11T08:05:54.239Z,14025.0771
2023-04-11T08:06:55.896Z,14030.3076
2023-04-11T08:07:57.568Z,14031.3848
2023-04-11T08:08:59.285Z,14030.8457
2023-04-11T08:10:00.848Z,14025.8457
2023-04-11T08:11:02.506Z,14023.1543
2023-04-11T08:12:04.200Z,14028.6152
2023-04-11T08:13:05.856Z,14030.0771
2023-04-11T08:14:07.416Z,14030.6152
2023-04-11T08:15:09.167Z,14030.0771
2023-04-11T08:16:10.837Z,14025.4619
2023-04-11T08:17:25.143Z,14018.6924
2023-04-11T08:18:14.068Z,14018.8330
2023-04-11T08:19:15.698Z,14029.6152
2023-04-11T08:20:17.416Z,14033.9229
2023-04-11T08:21:19.045Z,14028.8457
2023-04-11T08:22:21.022Z,14025.0000
2023-04-11T08:23:22.384Z,14031.0771
2023-04-11T08:24:23.962Z,14030.3848
2023-04-11T08:25:25.630Z,14035.2305
2023-04-11T08:26:27.957Z,14032.9229
2023-04-11T08:27:28.912Z,14026.8457
2023-04-11T08:28:30.714Z,14022.3076
2023-04-11T08:29:32.436Z,14024.6152
2023-04-11T08:30:33.868Z,14030.2305
2023-04-11T08:31:35.456Z,14032.8457
2023-04-11T08:32:37.420Z,14034.6152
2023-04-11T08:33:38.713Z,14032.1543
2023-04-11T08:34:40.389Z,14026.6152
2023-04-11T08:35:42.112Z,14025.0771
2023-04-11T08:36:43.712Z,14026.3076
2023-04-11T08:37:45.938Z,14032.7695
2023-04-11T08:38:47.023Z,14031.0000
2023-04-11T08:39:48.709Z,14031.4619
2023-04-11T08:40:50.532Z,14029.7695
2023-04-11T08:41:52.201Z,14028.9229
2023-04-11T08:42:53.633Z,14031.6152
2023-04-11T08:43:55.572Z,14033.6924
2023-04-11T08:44:56.925Z,14033.8457
2023-04-11T08:45:58.569Z,14038.1543
2023-04-11T08:47:00.283Z,14033.7695
2023-04-11T08:48:01.907Z,14034.2305
2023-04-11T08:49:03.703Z,14033.0000
2023-04-11T08:50:05.091Z,14032.0000
2023-04-11T08:51:06.807Z,14031.8457
2023-04-11T08:52:08.807Z,14032.4619
2023-04-11T08:53:10.055Z,14031.6152
2023-04-11T08:54:11.726Z,14032.1543
2023-04-11T08:55:13.413Z,14030.6924
2023-04-11T08:56:15.023Z,14032.9229
2023-04-11T08:57:16.722Z,14040.1543
2023-04-11T08:58:18.414Z,14042.1543
2023-04-11T08:59:20.052Z,14040.0771
2023-04-11T09:00:21.613Z,14037.4619
2023-04-11T09:01:23.355Z,14038.3848
2023-04-11T09:02:25.109Z,14043.2305
2023-04-11T09:03:26.605Z,14043.4619
2023-04-11T09:04:29.073Z,14049.6924
2023-04-11T09:05:30.202Z,14044.5381
2023-04-11T09:06:31.598Z,14044.3076
2023-04-11T09:07:33.216Z,14042.2305
2023-04-11T09:08:34.830Z,14048.0771
2023-04-11T09:09:36.471Z,14056.7695
2023-04-11T09:10:38.089Z,14054.7695
2023-04-11T09:11:39.764Z,14051.6924
2023-04-11T09:12:41.408Z,14051.7695
2023-04-11T09:13:43.817Z,14052.2305
2023-04-11T09:14:44.694Z,14058.4619
2023-04-11T09:15:46.451Z,14055.5381
2023-04-11T09:16:47.898Z,14057.6924
2023-04-11T09:17:49.546Z,14055.3848
2023-04-11T09:18:51.209Z,14050.0771
2023-04-11T09:19:52.872Z,14054.0000
2023-04-11T09:20:54.584Z,14064.6924
2023-04-11T09:21:56.205Z,14065.3076
2023-04-11T09:22:57.821Z,14059.3848
2023-04-11T09:23:59.427Z,14054.6924
2023-04-11T09:25:01.146Z,14057.3848
2023-04-11T09:26:02.840Z,14060.7695
2023-04-11T09:27:04.454Z,14069.6924
2023-04-11T09:28:06.137Z,14069.2305
2023-04-11T09:29:07.746Z,14066.7695
2023-04-11T09:30:09.397Z,14064.4619
2023-04-11T09:31:11.423Z,14061.6924
2023-04-11T09:32:13.403Z,14073.6924
2023-04-11T09:33:14.359Z,14078.7695
2023-04-11T09:34:16.414Z,14073.4619
2023-04-11T09:35:18.236Z,14072.0000
2023-04-11T09:36:19.330Z,14065.6924
2023-04-11T09:37:21.050Z,14067.6152
2023-04-11T09:38:22.825Z,14078.5381
2023-04-11T09:39:24.296Z,14081.5381
2023-04-11T09:40:25.905Z,14080.4619
2023-04-11T09:41:27.813Z,14078.6152
2023-04-11T09:42:29.311Z,14064.2305
2023-04-11T09:43:30.922Z,14071.7695
2023-04-11T09:44:32.701Z,14087.3076
2023-04-11T09:45:44.212Z,14090.2305
2023-04-11T09:46:35.809Z,14085.5000
2023-04-11T09:47:37.498Z,14082.6152
2023-04-11T09:48:46.502Z,14079.7695
2023-04-11T09:49:40.837Z,14079.9170
2023-04-11T09:50:42.448Z,14089.5381
2023-04-11T09:51:44.025Z,14091.3076
2023-04-11T09:52:45.689Z,14092.4619
2023-04-11T09:53:47.397Z,14090.2305
2023-04-11T09:54:48.980Z,14085.3848
2023-04-11T09:55:50.662Z,14085.8457
2023-04-11T09:56:52.348Z,14093.9229
2023-04-11T09:57:54.918Z,14098.3076
2023-04-11T09:58:55.872Z,14097.5381
2023-04-11T09:59:58.789Z,14096.7695
2023-04-11T10:00:58.814Z,14089.3848
2023-04-11T10:02:00.625Z,14095.7695
2023-04-11T10:03:02.613Z,14105.0771
2023-04-11T10:04:04.589Z,14105.0771
2023-04-11T10:05:05.609Z,14102.6152
2023-04-11T10:06:07.215Z,14102.0000
2023-04-11T10:07:08.842Z,14095.7695
2023-04-11T10:08:10.515Z,14102.4619
2023-04-11T10:09:12.182Z,14110.2305
2023-04-11T10:10:13.783Z,14110.2305
2023-04-11T10:11:15.438Z,14108.3848
2023-04-11T10:12:17.149Z,14103.3848
2023-04-11T10:13:18.840Z,14098.3848
2023-04-11T10:14:20.532Z,14109.1543
2023-04-11T10:15:21.981Z,14119.2305
2023-04-11T10:16:23.821Z,14113.0000
2023-04-11T10:17:25.411Z,14107.0000
2023-04-11T10:18:27.004Z,14110.0000
2023-04-11T10:19:28.686Z,14102.0771
2023-04-11T10:20:30.319Z,14110.0000
2023-04-11T10:21:32.026Z,14114.2305
2023-04-11T10:22:33.576Z,14108.8457
2023-04-11T10:23:35.272Z,14111.0771
2023-04-11T10:24:36.972Z,14106.0771
2023-04-11T10:25:38.559Z,14104.8457
2023-04-11T10:26:40.173Z,14114.8457
2023-04-11T10:27:41.841Z,14118.8457
2023-04-11T10:28:43.726Z,14118.9229
2023-04-11T10:29:45.282Z,14112.5381
2023-04-11T10:30:46.866Z,14109.0000
2023-04-11T10:31:48.634Z,14105.7695
2023-04-11T10:32:50.191Z,14116.4619
2023-04-11T10:33:51.989Z,14121.3076
2023-04-11T10:34:53.556Z,14117.6924
2023-04-11T10:35:55.171Z,14114.1543
2023-04-11T10:36:56.764Z,14108.6152
2023-04-11T10:37:58.990Z,14111.3076
2023-04-11T10:39:00.090Z,14125.3848
2023-04-11T10:40:01.816Z,14124.6152
2023-04-11T10:41:03.470Z,14122.2305
2023-04-11T10:42:05.032Z,14117.0771
2023-04-11T10:43:07.499Z,14107.0000
2023-04-11T10:44:08.362Z,14115.8457
2023-04-11T10:45:10.144Z,14127.5381
2023-04-11T10:46:11.590Z,14125.9229
2023-04-11T10:47:13.593Z,14119.1543
2023-04-11T10:48:14.911Z,14117.6152
2023-04-11T10:49:16.578Z,14107.6152
2023-04-11T10:50:18.655Z,14116.5381
2023-04-11T10:51:19.891Z,14128.8457
2023-04-11T10:52:21.570Z,14128.3076
2023-04-11T10:53:23.217Z,14123.0771
2023-04-11T10:54:24.883Z,14119.7695
2023-04-11T10:55:27.086Z,14114.9229
2023-04-11T10:56:28.184Z,14121.6924
2023-04-11T10:57:29.841Z,14126.6924
2023-04-11T10:58:31.475Z,14131.6152
2023-04-11T10:59:33.097Z,14124.5381
2023-04-11T11:00:35.198Z,14122.5381
2023-04-11T11:01:42.966Z,14116.5381
2023-04-11T11:02:38.425Z,14125.0000
2023-04-11T11:03:39.926Z,14131.6924
2023-04-11T11:04:41.417Z,14129.3076
2023-04-11T11:05:42.997Z,14127.5381
2023-04-11T11:06:51.103Z,14123.0771
2023-04-11T11:07:46.251Z,14121.5000
2023-04-11T11:08:48.397Z,14126.7695
2023-04-11T11:09:49.514Z,14133.3076
2023-04-11T11:10:51.274Z,14133.3076
2023-04-11T11:11:52.818Z,14129.5381
2023-04-11T11:12:54.549Z,14126.7695
2023-04-11T11:13:56.490Z,14116.5381
2023-04-11T11:14:57.814Z,14128.3848
2023-04-11T11:15:59.418Z,14133.0000
2023-04-11T11:17:01.222Z,14133.4619
2023-04-11T11:18:02.756Z,14130.0771
2023-04-11T11:19:04.872Z,14128.5381
2023-04-11T11:20:06.039Z,14122.8457
2023-04-11T11:21:14.170Z,14129.8457
2023-04-11T11:22:09.307Z,14134.9170
2023-04-11T11:23:14.125Z,14134.3848
2023-04-11T11:24:17.585Z,14126.0713